Time;durP1;ratioP1;P1;durP2;ratioP2;P2;SDS_P1;SDS_P2;PMS_P1;PMS_P2;Temp;Humidity;BMP_temperature;BMP_pressure;BME280_temperature;BME280_humidity;BME280_pressure;Samples;Min_cycle;Max_cycle;Signal;HPM_P1;HPM_P2
2024/01/07 00:01:21;;;;;;;1.23;1.13;;;;;;;6.71;100.00;98296.94;5056677;28;20057;-67
2024/01/07 00:03:53;;;;;;;0.47;0.47;;;;;;;6.61;99.21;98280.13;5056335;28;20445;-67
2024/01/07 00:06:22;;;;;;;0.73;0.65;;;;;;;6.71;99.17;98296.94;5056371;28;20483;-66
2024/01/07 00:08:51;;;;;;;0.40;0.40;;;;;;;6.57;99.30;98267.47;5056709;28;20040;-66
2024/01/07 00:11:20;;;;;;;0.90;0.90;;;;;;;6.63;99.17;98288.53;5056747;28;20060;-67
2024/01/07 00:13:48;;;;;;;0.47;0.47;;;;;;;6.63;98.80;98302.91;5056226;28;20041;-66
2024/01/07 00:16:17;;;;;;;1.33;1.07;;;;;;;6.61;99.23;98295.31;5056228;28;20056;-66
2024/01/07 00:18:46;;;;;;;0.70;0.70;;;;;;;6.60;99.23;98293.63;5056242;28;20048;-66
2024/01/07 00:21:16;;;;;;;0.57;0.57;;;;;;;6.59;99.56;98297.03;5056184;28;20076;-66
2024/01/07 00:23:45;;;;;;;0.50;0.50;;;;;;;6.56;98.72;98302.13;5055969;28;20455;-66
2024/01/07 00:26:14;;;;;;;0.77;0.77;;;;;;;6.57;98.45;98302.97;5056067;28;20045;-66
2024/01/07 00:28:42;;;;;;;0.80;0.80;;;;;;;6.54;98.68;98293.69;5056080;28;20087;-66
2024/01/07 00:31:14;;;;;;;0.40;0.40;;;;;;;6.53;98.51;98289.47;5056010;28;20048;-67
2024/01/07 00:33:43;;;;;;;0.68;0.68;;;;;;;6.46;98.83;98290.34;5056135;28;20053;-67
2024/01/07 00:36:12;;;;;;;;;;;;;;;6.49;98.38;98297.94;5056752;28;20132;-67
2024/01/07 00:38:42;;;;;;;0.60;0.60;;;;;;;6.48;98.50;98293.72;5054732;28;19921;-66
2024/01/07 00:41:13;;;;;;;0.90;0.90;;;;;;;6.47;97.91;98297.13;5054793;28;20095;-66
2024/01/07 00:43:42;;;;;;;1.20;1.10;;;;;;;6.48;98.11;98303.84;5054952;28;20056;-67
2024/01/07 00:46:11;;;;;;;1.25;0.95;;;;;;;6.45;98.50;98297.97;5054373;28;20511;-65
2024/01/07 00:48:38;;;;;;;0.73;0.73;;;;;;;6.42;98.28;98301.38;5054549;28;20495;-67
2024/01/07 00:51:08;;;;;;;0.40;0.40;;;;;;;6.40;97.63;98305.63;5054787;28;20033;-66
2024/01/07 00:53:38;;;;;;;0.38;0.38;;;;;;;6.36;98.08;98298.84;5055831;28;20048;-66
2024/01/07 00:56:09;;;;;;;0.68;0.68;;;;;;;6.31;97.32;98299.75;5055429;28;20052;-66
2024/01/07 00:58:38;;;;;;;1.27;0.95;;;;;;;6.29;97.67;98307.34;5054721;28;20037;-66
2024/01/07 01:01:07;;;;;;;1.03;1.00;;;;;;;6.30;98.08;98311.59;5055725;28;20502;-66
2024/01/07 01:03:37;;;;;;;0.82;0.82;;;;;;;6.29;97.31;98316.63;5055016;28;20305;-65
2024/01/07 01:06:07;;;;;;;0.57;0.57;;;;;;;6.25;97.75;98304.84;5054317;28;20125;-66
2024/01/07 01:08:36;;;;;;;0.70;0.70;;;;;;;6.28;96.79;98312.44;5055277;28;20099;-67
2024/01/07 01:11:05;;;;;;;0.40;0.40;;;;;;;6.28;97.08;98314.97;5055181;28;20040;-66
2024/01/07 01:13:35;;;;;;;0.68;0.68;;;;;;;5.95;97.06;98257.75;5054094;28;20096;-66
2024/01/07 01:16:05;;;;;;;3.55;1.23;;;;;;;6.22;96.69;98310.78;5054244;28;20144;-65
2024/01/07 01:18:33;;;;;;;;;;;;;;;6.19;96.89;98305.72;5055754;28;20033;-66
2024/01/07 01:21:02;;;;;;;0.77;0.77;;;;;;;6.19;96.83;98310.78;5054263;28;19925;-67
2024/01/07 01:23:31;;;;;;;0.63;0.63;;;;;;;6.18;97.08;98313.34;5054934;28;20043;-67
2024/01/07 01:26:00;;;;;;;0.50;0.50;;;;;;;6.15;96.34;98314.19;5054019;28;20048;-66
2024/01/07 01:28:29;;;;;;;0.30;0.30;;;;;;;6.14;96.56;98312.53;5053609;28;20527;-66
2024/01/07 01:30:59;;;;;;;0.40;0.40;;;;;;;6.11;96.33;98317.59;5054840;28;20041;-66
2024/01/07 01:33:28;;;;;;;0.50;0.50;;;;;;;6.05;96.17;98312.53;5054917;28;20045;-66
2024/01/07 01:35:57;;;;;;;0.77;0.77;;;;;;;6.02;96.47;98313.41;5054896;28;20060;-66
2024/01/07 01:38:26;;;;;;;0.33;0.33;;;;;;;6.01;96.30;98310.88;5053889;28;20041;-66
2024/01/07 01:40:55;;;;;;;3.57;1.37;;;;;;;5.97;96.01;98309.22;5053503;28;20338;-67
2024/01/07 01:43:25;;;;;;;0.50;0.50;;;;;;;5.96;95.79;98313.44;5054844;28;20098;-66
2024/01/07 01:45:53;;;;;;;2.95;0.80;;;;;;;5.95;95.60;98305.88;5053622;28;20037;-65
2024/01/07 01:48:25;;;;;;;0.30;0.30;;;;;;;5.93;95.62;98302.47;5054425;28;20044;-66
2024/01/07 01:50:57;;;;;;;0.60;0.60;;;;;;;5.88;95.28;98304.19;5054670;28;20045;-67
2024/01/07 01:53:27;;;;;;;0.50;0.50;;;;;;;5.85;95.64;98300.00;5054696;28;20498;-67
2024/01/07 01:55:58;;;;;;;1.73;1.40;;;;;;;5.83;95.48;98301.66;5053872;28;20067;-67
2024/01/07 01:58:29;;;;;;;1.63;0.85;;;;;;;5.79;95.10;98301.66;5053475;28;20049;-68
2024/01/07 02:00:59;;;;;;;0.30;0.30;;;;;;;5.78;94.79;98303.34;5053453;28;20406;-67
2024/01/07 02:03:30;;;;;;;0.30;0.30;;;;;;;5.76;95.11;98309.28;5054499;28;20541;-67
2024/01/07 02:05:59;;;;;;;0.70;0.70;;;;;;;5.75;95.01;98312.66;5053195;28;20037;-68
2024/01/07 02:08:28;;;;;;;;;;;;;;;5.72;94.53;98312.66;5054725;28;20438;-68
2024/01/07 02:10:57;;;;;;;0.40;0.40;;;;;;;5.69;94.88;98305.06;5053077;28;19924;-66
2024/01/07 02:13:26;;;;;;;0.60;0.60;;;;;;;5.71;94.61;98316.06;5053244;28;20049;-66
2024/01/07 02:15:55;;;;;;;0.60;0.60;;;;;;;5.67;94.19;98309.31;5053246;28;20384;-68
2024/01/07 02:18:24;;;;;;;0.40;0.40;;;;;;;5.61;94.30;98310.19;5054231;28;20169;-66
2024/01/07 02:20:55;;;;;;;0.88;0.60;;;;;;;5.59;94.34;98311.84;5054016;28;20106;-68
2024/01/07 02:23:24;;;;;;;0.30;0.30;;;;;;;5.56;94.13;98314.41;5054280;28;20099;-69
2024/01/07 02:25:54;;;;;;;0.97;0.93;;;;;;;5.54;94.10;98312.75;5053897;28;20049;-66
2024/01/07 02:28:23;;;;;;;0.77;0.77;;;;;;;5.54;94.14;98313.59;5052530;28;20045;-67
2024/01/07 02:30:51;;;;;;;4.00;0.97;;;;;;;5.52;94.27;98311.91;5052778;28;20132;-67
2024/01/07 02:33:20;;;;;;;0.30;0.30;;;;;;;5.49;94.02;98315.28;5052845;28;20464;-68
2024/01/07 02:35:50;;;;;;;0.30;0.30;;;;;;;5.48;94.03;98305.16;5053995;28;20132;-67
2024/01/07 02:38:18;;;;;;;0.70;0.70;;;;;;;5.48;93.77;98310.22;5053714;28;20282;-68
2024/01/07 02:40:47;;;;;;;1.45;1.35;;;;;;;5.41;93.08;98301.81;5053980;28;20402;-66
2024/01/07 02:43:17;;;;;;;0.50;0.50;;;;;;;5.33;93.65;98298.44;5053612;28;20079;-67
2024/01/07 02:45:46;;;;;;;0.40;0.40;;;;;;;5.34;93.13;98290.88;5053661;28;20141;-65
2024/01/07 02:48:15;;;;;;;0.85;0.85;;;;;;;5.30;93.16;98294.22;5053870;28;20033;-67
2024/01/07 02:50:44;;;;;;;0.30;0.30;;;;;;;5.25;93.22;98290.91;5052440;28;20060;-67
2024/01/07 02:53:13;;;;;;;0.30;0.30;;;;;;;5.25;93.34;98295.94;5053730;28;20107;-67
2024/01/07 02:55:41;;;;;;;0.40;0.40;;;;;;;5.24;93.12;98304.38;5053350;28;20041;-66
2024/01/07 02:58:10;;;;;;;0.50;0.50;;;;;;;5.19;92.95;98306.06;5053861;28;20549;-65
2024/01/07 03:00:40;;;;;;;1.17;0.87;;;;;;;5.13;93.02;98308.63;5053511;28;20045;-66
2024/01/07 03:03:09;;;;;;;0.60;0.60;;;;;;;5.12;92.88;98311.97;5053397;28;20044;-69
2024/01/07 03:05:38;;;;;;;0.30;0.30;;;;;;;5.08;93.00;98305.25;5053048;28;20107;-66
2024/01/07 03:08:07;;;;;;;0.77;0.73;;;;;;;5.10;92.70;98316.19;5053210;28;20041;-67
2024/01/07 03:10:36;;;;;;;0.50;0.50;;;;;;;5.09;92.72;98314.50;5053598;28;20036;-66
2024/01/07 03:13:05;;;;;;;0.30;0.30;;;;;;;5.07;92.41;98311.13;5053600;28;20135;-67
2024/01/07 03:15:34;;;;;;;0.40;0.40;;;;;;;5.05;92.34;98306.94;5053647;28;20045;-68
2024/01/07 03:18:05;;;;;;;0.73;0.73;;;;;;;5.06;92.19;98314.50;5053529;28;20484;-67
2024/01/07 03:20:34;;;;;;;0.50;0.50;;;;;;;5.03;92.28;98309.47;5053663;28;20495;-68
2024/01/07 03:23:03;;;;;;;0.60;0.60;;;;;;;4.97;92.24;98304.41;5053114;28;20041;-67
2024/01/07 03:25:32;;;;;;;0.40;0.40;;;;;;;4.97;92.38;98309.47;5035687;28;20140;-67
2024/01/07 03:28:01;;;;;;;0.40;0.40;;;;;;;4.93;92.14;98302.72;5053090;28;20095;-67
2024/01/07 03:30:29;;;;;;;0.25;0.25;;;;;;;4.96;92.14;98305.25;5053248;28;20041;-66
2024/01/07 03:32:58;;;;;;;0.40;0.40;;;;;;;4.95;92.14;98306.09;5053091;28;20033;-66
2024/01/07 03:35:29;;;;;;;1.92;0.77;;;;;;;4.94;91.98;98301.91;5053090;28;20090;-67
2024/01/07 03:37:57;;;;;;;0.30;0.30;;;;;;;4.94;92.05;98304.44;5052467;28;20102;-66
2024/01/07 03:40:26;;;;;;;1.50;1.33;;;;;;;4.92;91.83;98305.28;5052995;28;20053;-67
2024/01/07 03:42:55;;;;;;;0.40;0.40;;;;;;;4.89;92.15;98306.13;5053054;28;20110;-66
2024/01/07 03:45:24;;;;;;;0.25;0.25;;;;;;;4.88;91.67;98308.63;5052993;28;20048;-68
2024/01/07 03:47:53;;;;;;;0.50;0.50;;;;;;;4.85;91.59;98304.41;5053139;28;20088;-68
2024/01/07 03:50:22;;;;;;;0.80;0.80;;;;;;;4.86;91.53;98311.16;5052878;28;20133;-67
2024/01/07 03:52:53;;;;;;;0.50;0.50;;;;;;;4.82;91.47;98309.50;5053016;28;20106;-68
2024/01/07 03:55:21;;;;;;;0.73;0.63;;;;;;;4.79;91.42;98309.47;5053007;28;20076;-67
2024/01/07 03:57:50;;;;;;;0.60;0.60;;;;;;;4.76;91.32;98309.47;5051848;28;20522;-66
2024/01/07 04:00:20;;;;;;;7.80;1.63;;;;;;;4.70;91.12;98304.44;5052868;28;20049;-67
2024/01/07 04:02:49;;;;;;;0.40;0.40;;;;;;;4.69;91.31;98305.25;5052931;28;20049;-66
2024/01/07 04:05:18;;;;;;;0.60;0.60;;;;;;;4.70;91.46;98304.44;5052553;28;20099;-68
2024/01/07 04:07:46;;;;;;;0.40;0.40;;;;;;;4.67;91.05;98305.28;5052931;28;20037;-67
2024/01/07 04:10:18;;;;;;;0.30;0.30;;;;;;;4.66;91.06;98302.72;5052778;28;20091;-67
2024/01/07 04:12:47;;;;;;;0.30;0.30;;;;;;;4.69;91.15;98307.78;5052970;28;20079;-67
2024/01/07 04:15:16;;;;;;;0.50;0.50;;;;;;;4.69;91.02;98315.38;5053132;28;20041;-67
2024/01/07 04:17:45;;;;;;;1.25;1.17;;;;;;;4.65;90.72;98323.78;5053615;28;20045;-69
2024/01/07 04:20:15;;;;;;;0.35;0.35;;;;;;;4.64;90.59;98309.47;5056629;28;20037;-68
2024/01/07 04:22:43;;;;;;;;;;;;;;;4.63;90.51;98313.66;5056945;28;20063;-68
2024/01/07 04:25:12;;;;;;;0.80;0.80;;;;;;;4.65;90.66;98311.16;5056472;28;19920;-67
2024/01/07 04:27:43;;;;;;;0.60;0.60;;;;;;;4.64;90.39;98312.00;5056399;28;20037;-67
2024/01/07 04:30:12;;;;;;;0.32;0.32;;;;;;;4.64;90.21;98317.03;5056205;28;20136;-68
2024/01/07 04:32:41;;;;;;;0.40;0.40;;;;;;;4.65;90.47;98311.16;5056437;28;20124;-67
2024/01/07 04:35:10;;;;;;;0.57;0.57;;;;;;;4.64;90.35;98314.53;5056526;28;20037;-67
2024/01/07 04:37:39;;;;;;;0.40;0.40;;;;;;;4.58;89.92;98320.41;5056262;28;20274;-67
2024/01/07 04:40:08;;;;;;;0.50;0.50;;;;;;;4.57;90.09;98322.94;5056443;28;20040;-67
2024/01/07 04:42:37;;;;;;;0.30;0.30;;;;;;;4.54;89.90;98328.81;5056164;28;20153;-66
2024/01/07 04:45:08;;;;;;;0.50;0.50;;;;;;;4.53;89.64;98328.84;5055767;28;20049;-67
2024/01/07 04:47:37;;;;;;;0.40;0.40;;;;;;;4.42;89.74;98317.84;5056001;28;20499;-68
2024/01/07 04:50:07;;;;;;;0.40;0.40;;;;;;;4.52;89.61;98329.66;5055974;28;20057;-67
2024/01/07 04:52:36;;;;;;;0.40;0.40;;;;;;;4.49;89.58;98329.66;5056581;28;20806;-68
2024/01/07 04:55:05;;;;;;;0.73;0.73;;;;;;;4.48;89.62;98328.84;5056041;28;20037;-66
2024/01/07 04:57:34;;;;;;;0.60;0.60;;;;;;;4.45;89.60;98335.53;5055581;28;20049;-68
2024/01/07 05:00:04;;;;;;;0.75;0.63;;;;;;;4.39;89.22;98333.03;5055682;28;20487;-67
2024/01/07 05:02:35;;;;;;;0.40;0.40;;;;;;;4.39;89.44;98333.03;5049979;28;20034;-67
2024/01/07 05:05:04;;;;;;;0.98;0.98;;;;;;;4.40;89.44;98334.69;5035421;28;20049;-68
2024/01/07 05:07:33;;;;;;;0.95;0.93;;;;;;;4.38;89.43;98331.31;5035525;28;20519;-66
2024/01/07 05:10:03;;;;;;;0.40;0.40;;;;;;;4.36;88.75;98327.97;5035569;28;20069;-68
2024/01/07 05:12:32;;;;;;;0.70;0.70;;;;;;;4.36;89.25;98333.00;5036061;28;20057;-67
2024/01/07 05:15:01;;;;;;;0.50;0.50;;;;;;;4.40;89.08;98333.00;5035403;28;20045;-67
2024/01/07 05:17:31;;;;;;;0.50;0.50;;;;;;;4.35;88.99;98327.13;5035717;28;20511;-67
2024/01/07 05:20:01;;;;;;;0.50;0.50;;;;;;;4.44;88.93;98331.34;5035257;28;20041;-67
2024/01/07 05:22:30;;;;;;;0.40;0.40;;;;;;;4.38;88.94;98326.28;5035321;28;20128;-67
2024/01/07 05:24:59;;;;;;;0.60;0.60;;;;;;;4.36;88.71;98343.13;5033431;28;20042;-67
2024/01/07 05:27:28;;;;;;;0.60;0.60;;;;;;;4.34;88.62;98339.75;5035484;28;20045;-67
2024/01/07 05:29:57;;;;;;;0.50;0.50;;;;;;;4.32;88.93;98333.84;5035096;28;20381;-67
2024/01/07 05:32:26;;;;;;;0.40;0.40;;;;;;;4.32;88.75;98336.38;5034235;28;20046;-69
2024/01/07 05:34:55;;;;;;;0.63;0.63;;;;;;;4.30;88.52;98350.66;5034984;28;20069;-67
2024/01/07 05:37:25;;;;;;;0.68;0.68;;;;;;;4.28;88.16;98347.28;5035505;28;20398;-67
2024/01/07 05:39:54;;;;;;;0.50;0.50;;;;;;;4.24;88.14;98350.66;5034907;28;20140;-68
2024/01/07 05:42:23;;;;;;;1.33;1.23;;;;;;;4.22;88.17;98345.63;5034987;28;20049;-68
2024/01/07 05:44:52;;;;;;;0.40;0.40;;;;;;;4.22;88.19;98359.91;5035150;28;20083;-67
2024/01/07 05:47:20;;;;;;;0.60;0.60;;;;;;;4.16;88.08;98350.63;5034974;28;20038;-68
2024/01/07 05:49:51;;;;;;;1.20;1.20;;;;;;;4.19;87.69;98360.75;5034564;28;20037;-67
2024/01/07 05:52:21;;;;;;;0.80;0.80;;;;;;;4.22;87.65;98357.38;5035345;28;20068;-66
2024/01/07 05:54:51;;;;;;;0.43;0.43;;;;;;;4.20;87.77;98361.59;5034585;28;20120;-67
2024/01/07 05:57:20;;;;;;;0.30;0.30;;;;;;;4.19;87.34;98358.22;5034614;28;20049;-67
2024/01/07 05:59:50;;;;;;;0.20;0.20;;;;;;;4.17;87.73;98361.56;5034443;28;20048;-67
2024/01/07 06:02:22;;;;;;;0.50;0.50;;;;;;;4.10;87.64;98362.41;5033413;28;20073;-67
2024/01/07 06:04:51;;;;;;;0.50;0.50;;;;;;;4.12;87.29;98373.34;5034345;28;20492;-68
2024/01/07 06:07:20;;;;;;;1.00;0.98;;;;;;;4.12;87.14;98368.28;5034460;28;20041;-68
2024/01/07 06:09:51;;;;;;;0.47;0.47;;;;;;;4.11;87.26;98366.59;5032995;28;20041;-67
2024/01/07 06:12:20;;;;;;;0.30;0.30;;;;;;;4.12;87.38;98366.63;5033467;28;20479;-67
2024/01/07 06:14:48;;;;;;;0.50;0.50;;;;;;;4.06;87.05;98369.94;5034538;28;20041;-67
2024/01/07 06:17:17;;;;;;;1.10;0.83;;;;;;;4.04;86.89;98371.63;5034158;28;20530;-68
2024/01/07 06:19:46;;;;;;;0.40;0.40;;;;;;;4.02;86.75;98372.47;5034155;28;20283;-68
2024/01/07 06:22:15;;;;;;;0.30;0.30;;;;;;;3.99;86.20;98378.34;5034366;28;20064;-68
2024/01/07 06:24:44;;;;;;;1.53;1.43;;;;;;;3.99;86.76;98373.28;5034039;28;20057;-68
2024/01/07 06:27:15;;;;;;;0.82;0.82;;;;;;;3.97;86.45;98380.00;5034238;28;20443;-68
2024/01/07 06:29:44;;;;;;;0.63;0.63;;;;;;;3.97;86.20;98382.53;5032772;28;20041;-68
2024/01/07 06:32:13;;;;;;;0.85;0.85;;;;;;;3.95;86.36;98386.75;5033788;28;20050;-68
2024/01/07 06:34:42;;;;;;;0.82;0.82;;;;;;;3.90;86.48;98385.03;5034118;28;20051;-67
2024/01/07 06:37:11;;;;;;;0.60;0.60;;;;;;;3.88;86.13;98390.06;5033891;28;20044;-67
2024/01/07 06:39:40;;;;;;;0.80;0.80;;;;;;;3.86;85.94;98396.78;5033636;28;20073;-68
2024/01/07 06:42:09;;;;;;;0.40;0.40;;;;;;;3.82;86.11;98390.03;5033435;28;20285;-66
2024/01/07 06:44:39;;;;;;;0.50;0.50;;;;;;;3.74;85.34;98389.13;5033825;28;20415;-67
2024/01/07 06:47:08;;;;;;;1.00;1.00;;;;;;;3.75;85.65;98397.56;5033773;28;20056;-68
2024/01/07 06:49:38;;;;;;;0.53;0.53;;;;;;;3.73;85.75;98397.56;5032161;28;20053;-67
2024/01/07 06:52:08;;;;;;;0.52;0.52;;;;;;;3.70;85.71;98395.00;5033845;28;20041;-68
2024/01/07 06:54:39;;;;;;;1.73;1.20;;;;;;;3.76;85.20;98399.25;5033881;28;20045;-68
2024/01/07 06:57:08;;;;;;;0.43;0.43;;;;;;;3.76;85.60;98405.16;5033847;28;20507;-69
2024/01/07 06:59:36;;;;;;;0.40;0.40;;;;;;;3.72;85.15;98413.50;5033777;28;20124;-68
2024/01/07 07:02:07;;;;;;;0.50;0.50;;;;;;;3.70;85.35;98412.66;5033752;28;20545;-68
2024/01/07 07:04:36;;;;;;;0.60;0.60;;;;;;;3.70;84.77;98415.19;5033335;28;20077;-69
2024/01/07 07:07:05;;;;;;;0.82;0.82;;;;;;;3.67;84.71;98415.16;5033695;28;20032;-69
2024/01/07 07:09:34;;;;;;;2.25;0.90;;;;;;;3.67;85.09;98420.22;5036314;28;21240;-68
2024/01/07 07:12:03;;;;;;;1.00;0.88;;;;;;;3.63;84.81;98427.75;5053340;28;20041;-67
2024/01/07 07:14:32;;;;;;;0.40;0.40;;;;;;;3.65;84.71;98429.44;5053191;28;20084;-68
2024/01/07 07:17:01;;;;;;;0.50;0.50;;;;;;;3.62;85.13;98431.97;5053275;28;20041;-68
2024/01/07 07:19:31;;;;;;;0.60;0.60;;;;;;;3.66;84.48;98428.63;5053293;28;20025;-68
2024/01/07 07:22:00;;;;;;;0.40;0.40;;;;;;;3.61;84.04;98430.28;5053534;28;20056;-68
2024/01/07 07:24:29;;;;;;;0.57;0.57;;;;;;;3.62;84.39;98428.59;5053051;28;20088;-68
2024/01/07 07:26:58;;;;;;;0.40;0.40;;;;;;;3.58;84.50;98427.72;5043611;28;20037;-67
2024/01/07 07:29:27;;;;;;;0.93;0.93;;;;;;;3.56;84.17;98426.03;5033471;28;20510;-68
2024/01/07 07:31:56;;;;;;;0.50;0.50;;;;;;;3.50;83.60;98431.91;5033072;28;20041;-69
2024/01/07 07:34:26;;;;;;;0.85;0.80;;;;;;;3.49;83.70;98439.44;5033713;28;20088;-67
2024/01/07 07:36:56;;;;;;;0.30;0.30;;;;;;;3.43;83.49;98440.25;5033261;28;20515;-68
2024/01/07 07:39:26;;;;;;;0.30;0.30;;;;;;;3.49;83.77;98440.28;5033512;28;20054;-68
2024/01/07 07:41:55;;;;;;;1.50;1.40;;;;;;;3.45;84.05;98438.59;5033296;28;20518;-68
2024/01/07 07:44:25;;;;;;;2.85;1.00;;;;;;;3.48;83.88;98443.63;5032090;28;20060;-67
2024/01/07 07:46:54;;;;;;;0.40;0.40;;;;;;;3.48;83.40;98457.94;5033081;28;20049;-68
2024/01/07 07:49:23;;;;;;;0.40;0.40;;;;;;;3.41;83.08;98449.44;5033009;28;20038;-67
2024/01/07 07:51:58;;;;;;;0.32;0.32;;;;;;;3.37;83.12;98451.13;5033091;28;20050;-68
2024/01/07 07:54:26;;;;;;;0.40;0.40;;;;;;;3.40;83.05;98450.31;5036837;28;20041;-68
2024/01/07 07:56:56;;;;;;;3.20;1.15;;;;;;;3.43;83.17;98459.56;5036962;28;20061;-67
2024/01/07 07:59:24;;;;;;;0.40;0.40;;;;;;;3.44;83.09;98457.06;5037049;28;20087;-68
2024/01/07 08:01:53;;;;;;;2.57;1.27;;;;;;;3.41;83.24;98462.06;5036631;28;20045;-69
2024/01/07 08:04:22;;;;;;;0.30;0.30;;;;;;;3.37;82.96;98460.34;5035370;28;20045;-67
2024/01/07 08:06:51;;;;;;;0.80;0.80;;;;;;;3.39;83.17;98467.09;5037176;28;20466;-68
2024/01/07 08:09:21;;;;;;;0.40;0.40;;;;;;;3.43;82.94;98475.56;5036652;28;20049;-67
2024/01/07 08:11:50;;;;;;;0.43;0.43;;;;;;;3.45;82.50;98473.88;5036508;28;20049;-67
2024/01/07 08:14:19;;;;;;;0.50;0.50;;;;;;;3.44;83.42;98467.13;5036588;28;20442;-68
2024/01/07 08:16:47;;;;;;;0.50;0.50;;;;;;;3.42;82.88;98471.31;5036768;28;20503;-67
2024/01/07 08:19:16;;;;;;;0.40;0.40;;;;;;;3.41;82.64;98474.66;5036362;28;20286;-67
2024/01/07 08:21:45;;;;;;;0.80;0.80;;;;;;;3.42;83.06;98473.00;5036314;28;20281;-67
2024/01/07 08:24:14;;;;;;;0.70;0.70;;;;;;;3.37;82.19;98480.53;5036220;28;20080;-67
2024/01/07 08:26:44;;;;;;;0.80;0.80;;;;;;;3.40;82.36;98478.03;5036390;28;20060;-68
2024/01/07 08:29:13;;;;;;;0.50;0.50;;;;;;;3.44;82.19;98487.31;5036470;28;20143;-67
2024/01/07 08:31:42;;;;;;;1.40;1.30;;;;;;;3.44;81.98;98492.34;5036300;28;20502;-67
2024/01/07 08:34:11;;;;;;;1.17;1.08;;;;;;;3.38;81.62;98487.28;5036214;28;20270;-67
2024/01/07 08:36:40;;;;;;;0.50;0.50;;;;;;;3.35;82.08;98487.25;5036320;28;20037;-67
2024/01/07 08:39:10;;;;;;;0.70;0.70;;;;;;;3.36;81.63;98486.38;5036405;28;20049;-66
2024/01/07 08:41:40;;;;;;;0.75;0.70;;;;;;;3.29;81.70;98489.69;5034952;28;20318;-67
2024/01/07 08:44:10;;;;;;;0.40;0.40;;;;;;;3.29;81.15;98494.72;5036262;28;20037;-67
2024/01/07 08:46:39;;;;;;;0.50;0.50;;;;;;;3.23;80.89;98489.66;5035912;28;20045;-67
2024/01/07 08:49:08;;;;;;;0.45;0.45;;;;;;;3.23;81.51;98497.22;5035041;28;20042;-67
2024/01/07 08:51:37;;;;;;;0.30;0.30;;;;;;;3.19;81.64;98487.94;5035707;28;20041;-65
2024/01/07 08:54:06;;;;;;;0.50;0.50;;;;;;;3.18;80.73;98498.84;5035804;28;20045;-67
2024/01/07 08:56:35;;;;;;;0.40;0.40;;;;;;;3.13;80.98;98505.50;5035797;28;20499;-67
2024/01/07 08:59:04;;;;;;;0.50;0.50;;;;;;;3.09;80.80;98513.88;5035928;28;20132;-66
2024/01/07 09:01:34;;;;;;;;;;;;;;;3.06;80.84;98518.88;5036076;28;20164;-67
2024/01/07 09:04:03;;;;;;;0.68;0.68;;;;;;;3.10;80.17;98523.13;5034913;28;19927;-67
2024/01/07 09:06:32;;;;;;;0.40;0.40;;;;;;;3.13;80.67;98520.63;5035742;28;20048;-69
2024/01/07 09:09:01;;;;;;;1.20;1.17;;;;;;;3.15;80.84;98518.97;5035466;28;20039;-67
2024/01/07 09:11:31;;;;;;;0.50;0.50;;;;;;;3.22;80.97;98520.72;5035815;28;20037;-67
2024/01/07 09:14:00;;;;;;;0.73;0.73;;;;;;;3.18;80.52;98511.44;5035316;28;20480;-67
2024/01/07 09:16:29;;;;;;;0.50;0.50;;;;;;;3.28;80.94;98520.78;5034612;28;20500;-67
2024/01/07 09:18:59;;;;;;;1.75;1.45;;;;;;;3.23;80.79;98519.91;5035928;28;20308;-67
2024/01/07 09:21:47;;;;;;;0.50;0.50;;;;;;;3.21;80.50;98524.09;5035303;28;20045;-67
2024/01/07 09:24:18;;;;;;;0.68;0.68;;;;;;;3.23;79.87;98527.47;5035306;28;20462;-67
2024/01/07 09:26:47;;;;;;;0.73;0.73;;;;;;;3.22;79.78;98510.63;5035214;28;20045;-68
2024/01/07 09:29:16;;;;;;;0.43;0.43;;;;;;;3.21;80.04;98516.53;5035120;28;20037;-67
2024/01/07 09:31:45;;;;;;;0.50;0.50;;;;;;;3.15;79.38;98516.44;5035186;28;20046;-66
2024/01/07 09:34:15;;;;;;;0.50;0.50;;;;;;;3.16;79.79;98516.50;5034972;28;20042;-66
2024/01/07 09:36:44;;;;;;;0.60;0.60;;;;;;;3.18;79.24;98519.00;5038194;28;20120;-68
2024/01/07 09:39:13;;;;;;;1.23;0.87;;;;;;;3.22;79.26;98520.72;5043266;28;20049;-67
2024/01/07 09:41:43;;;;;;;0.77;0.77;;;;;;;3.25;79.25;98525.78;5034199;28;20583;-67
2024/01/07 09:44:12;;;;;;;;;;;;;;;3.20;78.88;98524.91;5035935;28;20045;-68
2024/01/07 09:46:42;;;;;;;0.47;0.47;;;;;;;3.21;78.76;98524.09;5034887;28;19921;-67
2024/01/07 09:49:11;;;;;;;0.80;0.80;;;;;;;3.19;78.59;98518.19;5034878;28;20073;-67
2024/01/07 09:51:45;;;;;;;0.88;0.88;;;;;;;3.07;78.92;98505.47;5034563;28;20033;-66
2024/01/07 09:54:18;;;;;;;0.40;0.40;;;;;;;3.18;78.42;98524.91;5035234;28;20454;-67
2024/01/07 09:56:56;;;;;;;0.52;0.52;;;;;;;3.21;78.30;98524.94;5034674;28;20049;-67
2024/01/07 09:59:25;;;;;;;2.42;1.17;;;;;;;3.19;78.70;98510.63;5033413;28;20041;-67
2024/01/07 10:01:54;;;;;;;0.52;0.52;;;;;;;3.21;78.00;98521.56;5034707;28;20396;-67
2024/01/07 10:04:25;;;;;;;0.30;0.30;;;;;;;3.19;78.34;98515.69;5034293;28;20050;-66
2024/01/07 10:06:55;;;;;;;0.60;0.60;;;;;;;3.18;77.54;98516.50;5034734;28;20080;-67
2024/01/07 10:09:26;;;;;;;0.57;0.57;;;;;;;3.14;77.97;98518.13;5034648;28;20092;-67
2024/01/07 10:11:57;;;;;;;1.15;1.05;;;;;;;3.10;77.95;98518.06;5034136;28;20129;-66
2024/01/07 10:14:25;;;;;;;0.60;0.60;;;;;;;3.17;77.63;98522.34;5034372;28;20499;-67
2024/01/07 10:16:56;;;;;;;1.73;1.15;;;;;;;3.13;77.20;98515.59;5032563;28;20136;-67
2024/01/07 10:19:25;;;;;;;0.70;0.70;;;;;;;3.15;76.92;98518.97;5034179;28;20045;-68
2024/01/07 10:22:02;;;;;;;0.38;0.38;;;;;;;3.04;76.96;98506.28;5034328;28;20048;-68
2024/01/07 10:24:39;;;;;;;0.60;0.60;;;;;;;3.08;76.97;98524.78;5016724;28;20103;-68
2024/01/07 10:27:09;;;;;;;0.45;0.45;;;;;;;3.05;76.83;98518.03;5034402;28;20041;-68
2024/01/07 10:29:38;;;;;;;1.13;1.10;;;;;;;3.02;76.13;98518.03;5033896;28;20073;-68
2024/01/07 10:32:07;;;;;;;0.45;0.45;;;;;;;3.05;76.91;98519.72;5046690;28;20041;-67
2024/01/07 10:34:37;;;;;;;0.70;0.70;;;;;;;3.00;76.67;98508.75;5053234;28;20048;-69
2024/01/07 10:37:08;;;;;;;0.60;0.60;;;;;;;3.05;76.57;98512.16;5019081;28;20399;-67
2024/01/07 10:39:37;;;;;;;0.70;0.70;;;;;;;3.02;75.73;98509.63;5053938;28;20526;-68
2024/01/07 10:42:07;;;;;;;0.75;0.75;;;;;;;2.97;76.44;98498.66;5053971;28;20399;-67
2024/01/07 10:44:36;;;;;;;0.52;0.52;;;;;;;2.96;76.30;98512.91;5053563;28;20052;-68
2024/01/07 10:47:08;;;;;;;0.77;0.77;;;;;;;2.94;75.72;98513.72;5053527;28;20045;-67
2024/01/07 10:49:41;;;;;;;0.90;0.90;;;;;;;2.82;75.25;98509.41;5053575;28;20073;-68
2024/01/07 10:52:13;;;;;;;0.60;0.60;;;;;;;2.82;75.75;98508.56;5053452;28;20073;-67
2024/01/07 10:54:45;;;;;;;0.70;0.70;;;;;;;2.82;75.86;98513.59;5053894;28;20049;-68
2024/01/07 10:57:22;;;;;;;1.50;1.40;;;;;;;2.81;75.67;98516.97;5053605;28;20492;-68
2024/01/07 10:59:55;;;;;;;0.70;0.70;;;;;;;2.83;75.99;98520.34;5053423;28;20451;-67
2024/01/07 11:02:25;;;;;;;1.23;1.17;;;;;;;2.84;75.48;98519.47;5053476;28;20564;-67
2024/01/07 11:05:04;;;;;;;0.80;0.80;;;;;;;2.83;75.01;98508.59;5053203;28;20060;-68
2024/01/07 11:07:42;;;;;;;0.50;0.50;;;;;;;2.76;74.60;98511.03;5053416;28;20514;-67
2024/01/07 11:10:17;;;;;;;0.30;0.30;;;;;;;2.77;75.52;98500.09;5053696;28;20408;-68
2024/01/07 11:12:55;;;;;;;0.50;0.50;;;;;;;2.87;74.69;98509.44;5053365;28;20491;-67
2024/01/07 11:15:56;;;;;;;0.55;0.55;;;;;;;2.80;75.04;98508.53;5053327;28;20049;-67
2024/01/07 11:18:31;;;;;;;0.50;0.50;;;;;;;2.73;74.91;98507.63;5049181;28;20053;-68
2024/01/07 11:21:01;;;;;;;0.45;0.45;;;;;;;2.72;74.57;98500.06;5053518;28;20044;-68
2024/01/07 11:23:34;;;;;;;0.63;0.63;;;;;;;2.71;75.34;98496.69;5053528;28;20053;-67
2024/01/07 11:26:03;;;;;;;0.52;0.52;;;;;;;2.78;74.62;98504.31;5053459;28;20049;-66
2024/01/07 11:28:46;;;;;;;0.60;0.60;;;;;;;2.71;74.39;98506.75;5057119;28;20048;-66
2024/01/07 11:31:16;;;;;;;0.60;0.60;;;;;;;2.75;74.57;98506.78;5056825;28;20051;-69
2024/01/07 11:33:47;;;;;;;0.95;0.95;;;;;;;2.71;74.38;98509.28;5053986;28;20045;-68
2024/01/07 11:36:17;;;;;;;1.00;0.85;;;;;;;2.71;74.37;98500.91;5055201;28;20036;-67
2024/01/07 11:38:50;;;;;;;1.55;1.38;;;;;;;2.71;74.06;98499.19;5056335;28;20387;-67
2024/01/07 11:41:23;;;;;;;0.45;0.45;;;;;;;2.76;74.47;98509.31;5057431;28;20067;-68
2024/01/07 11:43:57;;;;;;;1.30;1.10;;;;;;;2.73;74.24;98505.09;5053554;28;20444;-68
2024/01/07 11:46:30;;;;;;;0.98;0.98;;;;;;;2.73;74.44;98509.31;5054098;28;20127;-70
2024/01/07 11:49:00;;;;;;;0.60;0.60;;;;;;;2.76;74.68;98500.94;5052418;28;20033;-66
2024/01/07 11:51:31;;;;;;;0.50;0.50;;;;;;;2.83;74.72;98510.25;5055959;28;20051;-67
2024/01/07 11:54:02;;;;;;;0.40;0.40;;;;;;;2.87;74.49;98496.84;5052050;28;20059;-67
2024/01/07 11:56:31;;;;;;;0.40;0.40;;;;;;;2.92;74.41;98505.31;5055666;28;20039;-67